Time;durP1;ratioP1;P1;durP2;ratioP2;P2;SDS_P1;SDS_P2;PMS_P1;PMS_P2;Temp;Humidity;BMP_temperature;BMP_pressure;BME280_temperature;BME280_humidity;BME280_pressure;Samples;Min_cycle;Max_cycle;Signal;HPM_P1;HPM_P2
2022/01/22 06:28:26;;;;;;;2.28;2.15;;;1.00;99.90;;;;;;4954639;29;20220;-70
2022/01/22 06:30:53;;;;;;;2.53;2.38;;;1.00;99.90;;;;;;4955967;29;20727;-70
2022/01/22 06:33:20;;;;;;;2.33;2.22;;;1.00;99.90;;;;;;4955347;29;20717;-70
2022/01/22 06:35:47;;;;;;;2.40;2.30;;;1.00;99.90;;;;;;4955587;29;20240;-70
2022/01/22 06:38:14;;;;;;;2.80;2.60;;;1.00;99.90;;;;;;4955533;29;20223;-70
2022/01/22 06:43:28;;;;;;;1.73;1.73;;;1.00;99.90;;;;;;4974962;28;20183;-69
2022/01/22 06:45:55;;;;;;;2.35;2.25;;;1.00;99.90;;;;;;4974427;28;20261;-69
2022/01/22 06:48:22;;;;;;;2.05;2.03;;;1.00;99.90;;;;;;4974741;28;20242;-69
2022/01/22 06:50:49;;;;;;;1.77;1.67;;;1.00;99.90;;;;;;4974996;28;20222;-69
2022/01/22 06:53:16;;;;;;;2.60;2.40;;;1.10;99.90;;;;;;4975073;28;20203;-70
2022/01/22 06:55:46;;;;;;;2.10;2.00;;;1.00;99.90;;;;;;4974993;28;20203;-70
2022/01/22 06:58:13;;;;;;;1.98;1.88;;;1.10;99.90;;;;;;4975183;28;20299;-71
2022/01/22 07:00:42;;;;;;;1.67;1.67;;;1.10;99.90;;;;;;4974862;28;20265;-69
2022/01/22 07:03:09;;;;;;;2.05;1.95;;;1.10;99.90;;;;;;4974842;28;20234;-70
2022/01/22 07:05:35;;;;;;;2.30;2.20;;;1.00;99.90;;;;;;4974468;28;20239;-70
2022/01/22 07:08:02;;;;;;;2.40;2.20;;;1.10;99.90;;;;;;4974792;28;20250;-70
2022/01/22 07:10:30;;;;;;;1.90;1.90;;;1.10;99.90;;;;;;4974381;28;20251;-71
2022/01/22 07:12:58;;;;;;;2.50;2.40;;;1.10;99.90;;;;;;4974778;28;20291;-71
2022/01/22 07:15:25;;;;;;;2.65;2.55;;;1.10;99.90;;;;;;4974450;28;20670;-70
2022/01/22 07:17:54;;;;;;;2.42;2.30;;;1.10;99.90;;;;;;4974734;28;20231;-70
2022/01/22 07:20:27;;;;;;;2.60;2.40;;;1.00;99.90;;;;;;4974576;28;20274;-70
2022/01/22 07:23:01;;;;;;;3.75;2.55;;;1.00;99.90;;;;;;4974700;28;20290;-70
2022/01/22 07:25:29;;;;;;;2.55;2.40;;;1.00;99.90;;;;;;4974340;28;20188;-70
2022/01/22 07:27:56;;;;;;;2.58;2.47;;;1.00;99.90;;;;;;4974289;28;20246;-70
2022/01/22 07:30:25;;;;;;;2.78;2.58;;;1.10;99.90;;;;;;4974460;28;20258;-71
2022/01/22 07:32:53;;;;;;;2.95;2.80;;;1.10;99.90;;;;;;4974621;28;20203;-71
2022/01/22 07:35:20;;;;;;;2.55;2.35;;;1.00;99.90;;;;;;4974678;28;20235;-71
2022/01/22 07:37:48;;;;;;;2.80;2.60;;;1.00;99.90;;;;;;4974544;28;20234;-72
2022/01/22 07:40:15;;;;;;;3.30;3.10;;;1.10;99.90;;;;;;4973935;28;20262;-71
2022/01/22 07:42:43;;;;;;;3.38;3.08;;;1.10;99.90;;;;;;4974633;28;20268;-71
2022/01/22 07:45:10;;;;;;;3.17;2.88;;;1.10;99.90;;;;;;4974414;28;20301;-71
2022/01/22 07:47:38;;;;;;;3.17;2.97;;;1.10;99.90;;;;;;4974179;28;20633;-70
2022/01/22 07:50:07;;;;;;;3.25;3.05;;;1.10;99.90;;;;;;4973962;28;20258;-70
2022/01/22 07:52:34;;;;;;;2.83;2.67;;;1.10;99.90;;;;;;4974352;28;20258;-69
2022/01/22 07:55:03;;;;;;;2.63;2.50;;;1.20;99.90;;;;;;4973977;28;20239;-69
2022/01/22 07:57:30;;;;;;;2.78;2.60;;;1.20;99.90;;;;;;4977601;28;20624;-69
2022/01/22 07:59:56;;;;;;;3.40;3.10;;;1.20;99.90;;;;;;4979647;28;20258;-69
2022/01/22 08:02:23;;;;;;;2.67;2.58;;;1.20;99.90;;;;;;4977765;28;20647;-69
2022/01/22 08:04:51;;;;;;;2.72;2.60;;;1.20;99.90;;;;;;4978944;28;20233;-69
2022/01/22 08:07:19;;;;;;;2.58;2.47;;;1.20;99.90;;;;;;4981166;28;20204;-69
2022/01/22 08:09:46;;;;;;;7.63;4.65;;;1.20;99.90;;;;;;4981104;28;20247;-70
2022/01/22 08:12:15;;;;;;;3.28;3.08;;;1.20;99.90;;;;;;4980515;28;20208;-70
2022/01/22 08:14:42;;;;;;;5.30;3.40;;;1.20;99.90;;;;;;4980349;28;20192;-69
2022/01/22 08:17:11;;;;;;;4.15;3.70;;;1.20;99.90;;;;;;4981057;28;20211;-69
2022/01/22 08:19:38;;;;;;;4.57;3.65;;;1.30;99.90;;;;;;4981480;28;20255;-70
2022/01/22 08:22:06;;;;;;;4.47;4.07;;;1.20;99.90;;;;;;4981828;28;20207;-70
2022/01/22 08:24:35;;;;;;;5.55;4.18;;;1.30;99.90;;;;;;4982000;28;20338;-69
2022/01/22 08:27:13;;;;;;;4.47;4.07;;;1.30;99.90;;;;;;4982256;28;20215;-69
2022/01/22 08:29:40;;;;;;;4.18;3.80;;;1.30;99.90;;;;;;4981219;28;20227;-69
2022/01/22 08:32:27;;;;;;;3.65;3.42;;;1.30;99.90;;;;;;4981414;28;20214;-69
2022/01/22 08:37:44;;;;;;;4.15;3.75;;;1.30;99.90;;;;;;4966640;28;20620;-67
2022/01/22 08:40:14;;;;;;;4.22;3.90;;;1.40;99.90;;;;;;4979930;28;20234;-68
2022/01/22 08:42:41;;;;;;;5.65;4.38;;;1.50;99.90;;;;;;4981907;28;20290;-67
2022/01/22 08:45:09;;;;;;;4.30;3.90;;;1.50;99.90;;;;;;4980319;28;20554;-68
2022/01/22 08:47:36;;;;;;;4.13;3.72;;;1.60;99.90;;;;;;4981636;28;20209;-71
2022/01/22 08:50:04;;;;;;;4.13;3.83;;;1.60;99.90;;;;;;4982108;28;20722;-72
2022/01/22 08:52:35;;;;;;;3.67;3.38;;;1.70;99.90;;;;;;4981008;28;20230;-71
2022/01/22 08:55:03;;;;;;;3.80;3.47;;;1.80;99.90;;;;;;4977365;28;20192;-72
2022/01/22 08:57:31;;;;;;;3.80;3.60;;;1.80;99.90;;;;;;4976696;28;20231;-71
2022/01/22 08:59:58;;;;;;;4.03;3.72;;;1.90;99.90;;;;;;4976860;28;20267;-71
2022/01/22 09:02:27;;;;;;;4.20;3.58;;;1.90;99.90;;;;;;4976664;28;20262;-71
2022/01/22 09:04:54;;;;;;;3.53;3.30;;;1.90;99.90;;;;;;4976914;28;20203;-71
2022/01/22 09:07:21;;;;;;;3.17;2.90;;;2.00;99.90;;;;;;4975849;28;20203;-71
2022/01/22 09:09:48;;;;;;;2.90;2.70;;;2.00;99.90;;;;;;4976554;28;20749;-71
2022/01/22 09:12:16;;;;;;;3.42;3.22;;;2.00;99.90;;;;;;4976515;28;20204;-71
2022/01/22 09:14:44;;;;;;;3.20;3.00;;;2.00;99.90;;;;;;4976895;28;20242;-71
2022/01/22 09:17:11;;;;;;;3.50;3.30;;;2.10;99.90;;;;;;4976877;28;20255;-71
2022/01/22 09:19:38;;;;;;;4.47;3.20;;;2.10;99.90;;;;;;4976505;28;20223;-70
2022/01/22 09:22:08;;;;;;;3.45;3.25;;;2.10;99.90;;;;;;4976484;28;20262;-71
2022/01/22 09:24:35;;;;;;;3.20;3.00;;;2.10;99.90;;;;;;4976209;28;20249;-70
2022/01/22 09:27:05;;;;;;;3.10;2.88;;;2.20;99.90;;;;;;4976482;28;20274;-70
2022/01/22 09:29:32;;;;;;;4.22;3.83;;;2.20;99.90;;;;;;4976512;28;20258;-70
2022/01/22 09:32:00;;;;;;;3.90;3.60;;;2.30;99.90;;;;;;4976500;28;20222;-72
2022/01/22 09:34:27;;;;;;;4.35;3.50;;;2.30;99.90;;;;;;4976515;28;20235;-69
2022/01/22 09:36:54;;;;;;;3.97;3.65;;;2.30;99.90;;;;;;4976369;28;20243;-70
2022/01/22 09:39:22;;;;;;;3.80;3.50;;;2.30;99.90;;;;;;4978253;28;20208;-68
2022/01/22 09:41:49;;;;;;;4.30;3.85;;;2.40;99.90;;;;;;4978435;28;20223;-68
2022/01/22 09:44:17;;;;;;;4.82;4.10;;;2.40;99.90;;;;;;4978427;28;20214;-69
2022/01/22 09:46:47;;;;;;;4.57;3.67;;;2.40;99.90;;;;;;4978539;28;20196;-69
2022/01/22 09:49:15;;;;;;;4.30;4.00;;;2.40;99.90;;;;;;4978670;28;20184;-69
2022/01/22 09:51:45;;;;;;;4.05;3.75;;;2.50;99.90;;;;;;4978774;28;20203;-69
2022/01/22 09:54:13;;;;;;;3.83;3.53;;;2.50;99.90;;;;;;4978835;28;20207;-69
2022/01/22 09:56:44;;;;;;;3.60;3.30;;;2.50;99.90;;;;;;4977685;28;20207;-69
2022/01/22 09:59:11;;;;;;;4.25;3.85;;;2.50;99.90;;;;;;4979822;28;20223;-69
2022/01/22 10:01:39;;;;;;;3.90;3.05;;;2.50;99.90;;;;;;4977967;28;20216;-69
2022/01/22 10:04:07;;;;;;;3.50;3.20;;;2.60;99.90;;;;;;4976567;28;20201;-70
2022/01/22 10:06:49;;;;;;;3.85;3.45;;;2.60;99.90;;;;;;4975579;28;20242;-71
2022/01/22 10:09:26;;;;;;;3.25;3.05;;;2.60;99.90;;;;;;4976076;28;20187;-71
2022/01/22 10:12:08;;;;;;;3.72;3.42;;;2.70;99.90;;;;;;4976128;28;20183;-70
2022/01/22 10:14:35;;;;;;;3.60;3.30;;;2.70;99.90;;;;;;4975809;28;20199;-70
2022/01/22 10:17:02;;;;;;;3.33;3.03;;;2.70;99.90;;;;;;4975729;28;20242;-71
2022/01/22 10:19:29;;;;;;;4.72;4.20;;;2.80;99.90;;;;;;4978584;28;20226;-70
2022/01/22 10:22:00;;;;;;;7.13;4.15;;;2.80;99.90;;;;;;4977542;28;20729;-70
2022/01/22 10:24:35;;;;;;;4.13;3.83;;;2.80;99.90;;;;;;4976792;28;20242;-70
2022/01/22 10:27:23;;;;;;;3.92;3.58;;;2.90;99.90;;;;;;4976506;28;20199;-70
2022/01/22 10:29:53;;;;;;;4.22;3.90;;;2.90;99.90;;;;;;4976758;28;20314;-70
2022/01/22 10:32:26;;;;;;;4.88;4.38;;;2.90;99.90;;;;;;4976693;28;20623;-70
2022/01/22 10:35:04;;;;;;;4.97;4.47;;;2.90;99.90;;;;;;4977427;28;20195;-70
2022/01/22 10:37:34;;;;;;;5.70;4.32;;;2.90;99.90;;;;;;4977285;28;20188;-70
2022/01/22 10:40:29;;;;;;;6.28;4.38;;;2.90;99.90;;;;;;4977394;28;20231;-71
2022/01/22 10:43:12;;;;;;;4.75;4.35;;;3.00;99.90;;;;;;4932556;28;20341;-71
2022/01/22 10:45:41;;;;;;;4.50;4.07;;;3.10;99.90;;;;;;4976095;28;20203;-70
2022/01/22 10:48:17;;;;;;;4.03;3.83;;;3.30;99.90;;;;;;4976268;28;20258;-70
2022/01/22 10:50:46;;;;;;;3.63;3.40;;;3.40;99.90;;;;;;4977086;28;20309;-70
2022/01/22 10:53:15;;;;;;;3.60;3.40;;;3.50;99.90;;;;;;4976815;28;20207;-70
2022/01/22 10:56:02;;;;;;;3.30;3.00;;;3.50;99.90;;;;;;4977286;28;20196;-71
2022/01/22 10:58:34;;;;;;;4.03;3.63;;;3.50;99.90;;;;;;4977220;28;20267;-71
2022/01/22 11:01:05;;;;;;;3.80;3.60;;;3.40;99.90;;;;;;4975981;28;20223;-71
2022/01/22 11:03:33;;;;;;;5.25;3.67;;;3.50;99.90;;;;;;4976959;28;20184;-72
2022/01/22 11:06:06;;;;;;;3.50;3.30;;;3.40;99.90;;;;;;4977814;28;20207;-72
2022/01/22 11:08:35;;;;;;;4.07;3.60;;;3.50;99.90;;;;;;4977139;28;20695;-71
2022/01/22 11:11:05;;;;;;;5.03;3.65;;;3.50;99.90;;;;;;4977015;28;20220;-71
2022/01/22 11:13:32;;;;;;;8.48;4.05;;;3.60;99.90;;;;;;4976488;28;20188;-71
2022/01/22 11:15:59;;;;;;;3.55;3.25;;;3.60;99.90;;;;;;4974685;28;20237;-71
2022/01/22 11:18:28;;;;;;;4.75;3.20;;;3.70;99.90;;;;;;4974741;28;20242;-71
2022/01/22 11:20:55;;;;;;;5.15;3.58;;;3.80;99.90;;;;;;4974696;28;20269;-71
2022/01/22 11:23:23;;;;;;;3.63;3.33;;;3.90;99.90;;;;;;4974503;28;20238;-71
2022/01/22 11:25:52;;;;;;;5.03;3.67;;;4.00;99.90;;;;;;4974725;28;20270;-71
2022/01/22 11:28:21;;;;;;;5.45;4.03;;;4.00;99.90;;;;;;4974630;28;20649;-72
2022/01/22 11:30:50;;;;;;;5.32;3.67;;;4.00;99.90;;;;;;4976148;28;20266;-70
2022/01/22 11:33:21;;;;;;;4.07;3.58;;;4.00;99.90;;;;;;4978150;28;20245;-70
2022/01/22 11:36:01;;;;;;;3.42;3.13;;;3.90;99.90;;;;;;4978540;28;20219;-71
2022/01/22 11:38:30;;;;;;;4.15;3.65;;;3.80;99.90;;;;;;4978135;28;20226;-71
2022/01/22 11:41:08;;;;;;;5.10;3.90;;;3.80;99.90;;;;;;4977840;28;20653;-71
2022/01/22 11:43:59;;;;;;;5.60;4.28;;;3.80;99.90;;;;;;4978318;28;20187;-71
2022/01/22 11:46:29;;;;;;;3.75;3.45;;;3.90;99.90;;;;;;4978730;28;20196;-71
2022/01/22 11:49:14;;;;;;;3.83;3.20;;;4.00;99.90;;;;;;4978376;28;20218;-71
2022/01/22 11:51:42;;;;;;;4.03;3.38;;;4.10;99.90;;;;;;4977994;28;20543;-71
2022/01/22 11:54:09;;;;;;;3.78;3.47;;;4.40;99.90;;;;;;4978894;28;20270;-71
2022/01/22 11:56:46;;;;;;;3.65;3.15;;;4.50;99.90;;;;;;4978905;28;20253;-71
2022/01/22 11:59:37;;;;;;;3.10;2.60;;;4.70;99.90;;;;;;4980019;28;20631;-72
2022/01/22 12:02:14;;;;;;;2.58;2.47;;;4.90;99.90;;;;;;4980425;28;20243;-72
2022/01/22 12:04:50;;;;;;;2.70;2.50;;;4.90;99.90;;;;;;4981599;28;20210;-71
2022/01/22 12:07:21;;;;;;;3.33;2.95;;;5.00;99.90;;;;;;4980588;28;20298;-71
2022/01/22 12:16:12;;;;;;;2.53;2.33;;;5.00;99.90;;;;;;4981279;28;20344;-69
2022/01/22 12:18:44;;;;;;;2.63;2.42;;;5.10;99.90;;;;;;4980654;28;20262;-70
2022/01/22 12:21:36;;;;;;;2.20;2.10;;;5.10;99.90;;;;;;4977722;28;20629;-71
2022/01/22 12:24:07;;;;;;;3.35;2.20;;;5.10;99.90;;;;;;4977806;28;20729;-71
2022/01/22 12:26:59;;;;;;;1.85;1.85;;;5.10;99.90;;;;;;4977567;28;20678;-71
2022/01/22 12:29:42;;;;;;;2.40;2.20;;;5.00;99.90;;;;;;4977725;28;20183;-71
2022/01/22 12:32:17;;;;;;;2.25;2.15;;;4.90;99.90;;;;;;4977374;28;20188;-71
2022/01/22 12:35:14;;;;;;;1.88;1.83;;;4.80;99.90;;;;;;4977738;28;20225;-71
2022/01/22 12:37:47;;;;;;;2.35;2.15;;;4.80;99.90;;;;;;4977640;28;20199;-71
2022/01/22 12:40:26;;;;;;;2.20;2.10;;;4.80;99.90;;;;;;4977281;28;20238;-70
2022/01/22 12:43:03;;;;;;;2.20;2.10;;;4.70;99.90;;;;;;4975811;28;20697;-70
2022/01/22 12:45:34;;;;;;;4.63;2.92;;;4.70;99.90;;;;;;4977259;28;20550;-70
2022/01/22 12:48:01;;;;;;;4.32;3.35;;;4.60;99.90;;;;;;4977267;28;20279;-70
2022/01/22 12:50:32;;;;;;;3.00;2.78;;;4.50;99.90;;;;;;4977406;28;20258;-70
2022/01/22 12:53:04;;;;;;;4.63;4.15;;;4.50;99.90;;;;;;4977071;28;20238;-70
2022/01/22 12:58:22;;;;;;;3.50;3.20;;;4.30;99.90;;;;;;4977015;28;20598;-70
2022/01/22 13:00:52;;;;;;;3.63;3.35;;;4.20;99.90;;;;;;4976616;28;20728;-70
2022/01/22 13:03:33;;;;;;;4.32;3.78;;;4.20;99.90;;;;;;4977023;28;20184;-70
2022/01/22 13:06:00;;;;;;;2.80;2.60;;;4.20;99.90;;;;;;4976690;28;20245;-70
2022/01/22 13:08:28;;;;;;;5.00;4.00;;;4.30;99.90;;;;;;4976606;28;20687;-70
2022/01/22 13:10:58;;;;;;;5.40;3.50;;;4.20;99.90;;;;;;4977078;28;20231;-70
2022/01/22 13:13:25;;;;;;;4.88;4.00;;;4.20;99.90;;;;;;4977390;28;20210;-70
2022/01/22 13:16:06;;;;;;;5.43;3.70;;;4.20;99.90;;;;;;4977091;28;20254;-71
2022/01/22 13:18:46;;;;;;;2.92;2.72;;;4.30;99.90;;;;;;4976938;28;20191;-71
2022/01/22 13:21:15;;;;;;;3.53;3.28;;;4.40;99.90;;;;;;4976696;28;20223;-71
2022/01/22 13:23:43;;;;;;;3.83;2.83;;;4.40;99.90;;;;;;4976507;28;20675;-69
2022/01/22 13:26:11;;;;;;;2.60;2.40;;;4.40;99.90;;;;;;4976749;28;20235;-70
2022/01/22 13:28:39;;;;;;;2.95;2.75;;;4.40;99.90;;;;;;4976541;28;20227;-69
2022/01/22 13:31:17;;;;;;;3.00;2.72;;;4.40;99.90;;;;;;4976452;28;20705;-70
2022/01/22 13:33:53;;;;;;;2.40;2.30;;;4.40;99.90;;;;;;4976696;28;20198;-70
2022/01/22 13:36:41;;;;;;;2.15;2.10;;;4.40;99.90;;;;;;4976420;28;20563;-70
2022/01/22 13:45:21;;;;;;;2.17;2.08;;;4.50;99.90;;;;;;4941679;28;20192;-70
2022/01/22 13:47:54;;;;;;;1.83;1.73;;;4.50;99.90;;;;;;4976412;28;20227;-70
2022/01/22 13:50:22;;;;;;;1.85;1.75;;;4.50;99.90;;;;;;4976207;28;20321;-70
2022/01/22 13:52:50;;;;;;;2.33;2.22;;;4.40;99.90;;;;;;4976191;28;20250;-69
2022/01/22 13:55:17;;;;;;;2.20;2.10;;;4.40;99.90;;;;;;4975944;28;20235;-69
2022/01/22 13:57:47;;;;;;;2.10;2.00;;;4.40;99.90;;;;;;4976077;28;20250;-70
2022/01/22 14:00:18;;;;;;;1.90;1.83;;;4.40;99.90;;;;;;4975650;28;20231;-69
2022/01/22 14:03:04;;;;;;;2.08;1.98;;;4.40;99.90;;;;;;4976280;28;20258;-70
2022/01/22 14:05:32;;;;;;;1.77;1.67;;;4.40;99.90;;;;;;4976324;28;20250;-70
2022/01/22 14:08:01;;;;;;;1.50;1.50;;;4.50;99.90;;;;;;4975887;28;20655;-70
2022/01/22 14:10:28;;;;;;;1.70;1.60;;;4.50;99.90;;;;;;4975475;28;20773;-70
2022/01/22 14:13:00;;;;;;;1.75;1.65;;;4.50;99.90;;;;;;4975481;28;20742;-70
2022/01/22 14:15:33;;;;;;;1.42;1.40;;;4.50;99.90;;;;;;4976370;28;20207;-70
2022/01/22 14:18:14;;;;;;;2.22;2.13;;;4.50;99.90;;;;;;4975270;28;20542;-70
2022/01/22 14:20:45;;;;;;;2.05;1.95;;;4.50;99.90;;;;;;4975259;28;20699;-70
2022/01/22 14:23:15;;;;;;;2.05;1.95;;;4.50;99.90;;;;;;4975479;28;20239;-70
2022/01/22 14:25:57;;;;;;;2.88;2.47;;;4.40;99.90;;;;;;4975522;28;20241;-70
2022/01/22 14:28:36;;;;;;;2.33;2.20;;;4.40;99.90;;;;;;4975081;28;20187;-70
2022/01/22 14:31:16;;;;;;;2.00;1.90;;;4.30;99.90;;;;;;4975076;28;20226;-70
2022/01/22 14:33:43;;;;;;;3.45;2.88;;;4.40;99.90;;;;;;4975006;28;20234;-70
2022/01/22 14:36:16;;;;;;;2.90;2.60;;;4.30;99.90;;;;;;4975204;28;20246;-70
2022/01/22 14:38:48;;;;;;;2.63;2.42;;;4.20;99.90;;;;;;4975232;28;20227;-70
2022/01/22 14:47:01;;;;;;;3.05;2.85;;;4.10;99.90;;;;;;4975008;28;20176;-70
2022/01/22 14:49:31;;;;;;;1.90;1.90;;;4.10;99.90;;;;;;4974601;28;20188;-70
2022/01/22 14:52:00;;;;;;;2.85;2.65;;;4.10;99.90;;;;;;4974724;28;20583;-70
2022/01/22 14:54:31;;;;;;;4.82;3.13;;;4.00;99.90;;;;;;4974577;28;20619;-70
2022/01/22 14:56:58;;;;;;;3.97;3.58;;;4.00;99.90;;;;;;4974806;28;20238;-70
2022/01/22 14:59:25;;;;;;;3.95;3.60;;;4.00;99.90;;;;;;4974827;28;20203;-70
2022/01/22 15:01:52;;;;;;;5.00;3.88;;;3.90;99.90;;;;;;4974606;28;20278;-70
2022/01/22 15:04:18;;;;;;;6.20;4.18;;;3.80;99.90;;;;;;4975085;28;20242;-70
2022/01/22 15:06:46;;;;;;;4.10;3.80;;;3.80;99.90;;;;;;4974523;28;20262;-70
2022/01/22 15:09:15;;;;;;;4.22;3.80;;;3.80;99.90;;;;;;4974419;28;20758;-70
2022/01/22 15:11:42;;;;;;;4.85;3.22;;;3.80;99.90;;;;;;4975015;28;20548;-71
2022/01/22 15:14:09;;;;;;;3.22;2.95;;;3.70;99.90;;;;;;4974994;28;20628;-71
2022/01/22 15:16:44;;;;;;;3.72;3.38;;;3.70;99.90;;;;;;4974531;28;20645;-72
2022/01/22 15:19:16;;;;;;;2.88;2.55;;;3.70;99.90;;;;;;4974755;28;20206;-71
2022/01/22 15:21:45;;;;;;;3.35;3.05;;;3.70;99.90;;;;;;4974852;28;20203;-70
2022/01/22 15:24:14;;;;;;;3.50;3.17;;;3.70;99.90;;;;;;4974512;28;20203;-70
2022/01/22 15:26:41;;;;;;;3.17;3.00;;;3.70;99.90;;;;;;4974600;28;20235;-71
2022/01/22 15:29:11;;;;;;;3.00;2.90;;;3.70;99.90;;;;;;4974600;28;20654;-72
2022/01/22 15:31:51;;;;;;;2.83;2.63;;;3.70;99.90;;;;;;4975459;28;20207;-72
2022/01/22 15:34:38;;;;;;;3.00;2.80;;;3.70;99.90;;;;;;4974596;28;20632;-73
2022/01/22 15:37:07;;;;;;;2.67;2.58;;;3.70;99.90;;;;;;4974452;28;20187;-73
2022/01/22 15:39:37;;;;;;;2.58;2.47;;;3.70;99.90;;;;;;4974507;28;20271;-73
2022/01/22 15:42:05;;;;;;;2.85;2.60;;;3.60;99.90;;;;;;4975416;28;20243;-71
2022/01/22 15:44:33;;;;;;;3.08;2.88;;;3.60;99.90;;;;;;4974733;28;20230;-71
2022/01/22 15:47:01;;;;;;;2.63;2.53;;;3.60;99.90;;;;;;4974723;28;20210;-72
2022/01/22 15:49:29;;;;;;;2.03;1.92;;;3.60;99.90;;;;;;4974409;28;20207;-71
2022/01/22 15:51:58;;;;;;;2.08;1.98;;;3.60;99.90;;;;;;4974627;28;20234;-72
2022/01/22 15:54:25;;;;;;;1.83;1.80;;;3.60;99.90;;;;;;4974405;28;20266;-72
2022/01/22 15:56:54;;;;;;;2.55;2.38;;;3.50;99.90;;;;;;4974328;28;20254;-69
2022/01/22 15:59:22;;;;;;;2.25;2.15;;;3.50;99.90;;;;;;4974343;28;20235;-72
2022/01/22 16:01:51;;;;;;;1.90;1.85;;;3.50;99.90;;;;;;4974082;28;20675;-69
2022/01/22 16:04:18;;;;;;;1.90;1.80;;;3.50;99.90;;;;;;4974153;28;20701;-69
2022/01/22 16:06:59;;;;;;;1.52;1.52;;;3.40;99.90;;;;;;4974116;28;20246;-70
2022/01/22 16:09:27;;;;;;;1.75;1.75;;;3.40;99.90;;;;;;4974458;28;20263;-70
2022/01/22 16:11:56;;;;;;;1.70;1.70;;;3.40;99.90;;;;;;4974430;28;20292;-70
2022/01/22 16:14:23;;;;;;;1.52;1.50;;;3.30;99.90;;;;;;4974300;28;20258;-71
2022/01/22 16:16:51;;;;;;;1.50;1.50;;;3.30;99.90;;;;;;4974663;28;20239;-70
2022/01/22 16:19:20;;;;;;;1.40;1.40;;;3.30;99.90;;;;;;4977880;28;20204;-71
2022/01/22 16:21:47;;;;;;;1.50;1.50;;;3.20;99.90;;;;;;4977956;28;20227;-69
2022/01/22 16:24:15;;;;;;;1.45;1.45;;;3.20;99.90;;;;;;4977498;28;20254;-74
2022/01/22 16:26:43;;;;;;;1.50;1.50;;;3.20;99.90;;;;;;4977649;28;20234;-74
2022/01/22 16:29:13;;;;;;;1.33;1.33;;;3.20;99.90;;;;;;4977839;28;20611;-69
2022/01/22 16:31:40;;;;;;;1.65;1.55;;;3.10;99.90;;;;;;4977567;28;20299;-69
2022/01/22 16:34:07;;;;;;;1.80;1.70;;;3.10;99.90;;;;;;4977708;28;20238;-69
2022/01/22 16:36:36;;;;;;;1.50;1.50;;;3.10;99.90;;;;;;4977565;28;20208;-69
2022/01/22 16:39:05;;;;;;;1.30;1.30;;;3.10;99.90;;;;;;4977654;28;20205;-69
2022/01/22 16:41:33;;;;;;;1.52;1.52;;;3.10;99.90;;;;;;4977271;28;20286;-69
2022/01/22 16:44:11;;;;;;;1.33;1.33;;;3.10;99.90;;;;;;4977098;28;20698;-69
2022/01/22 16:46:50;;;;;;;1.70;1.60;;;3.10;99.90;;;;;;4977386;28;20188;-69
2022/01/22 16:52:12;;;;;;;1.40;1.40;;;3.00;99.90;;;;;;4977259;28;20182;-68
2022/01/22 16:54:46;;;;;;;1.55;1.55;;;3.00;99.90;;;;;;4976903;28;20580;-68
2022/01/22 16:57:15;;;;;;;1.20;1.20;;;3.00;99.90;;;;;;4977622;28;20199;-69
2022/01/22 16:59:47;;;;;;;1.52;1.42;;;3.00;99.90;;;;;;4977089;28;20219;-69
2022/01/22 17:02:18;;;;;;;1.50;1.50;;;3.00;99.90;;;;;;4976789;28;20191;-69
2022/01/22 17:04:50;;;;;;;1.48;1.48;;;2.90;99.90;;;;;;4976879;28;20192;-68
2022/01/22 17:07:28;;;;;;;1.35;1.35;;;2.90;99.90;;;;;;4976340;28;20529;-69
2022/01/22 17:10:13;;;;;;;1.42;1.42;;;2.90;99.90;;;;;;4976413;28;20219;-69
2022/01/22 17:15:25;;;;;;;1.27;1.27;;;2.90;99.90;;;;;;4976893;28;20259;-68
2022/01/22 17:17:53;;;;;;;1.30;1.30;;;2.90;99.90;;;;;;4977014;28;20219;-77
2022/01/22 17:20:20;;;;;;;1.20;1.20;;;2.80;99.90;;;;;;4977271;28;20266;-78
2022/01/22 17:22:47;;;;;;;1.58;1.48;;;2.80;99.90;;;;;;4977727;28;20695;-71
2022/01/22 17:25:16;;;;;;;1.30;1.30;;;2.80;99.90;;;;;;4976819;28;20246;-69
2022/01/22 17:27:42;;;;;;;1.17;1.17;;;2.80;99.90;;;;;;4976757;28;20234;-71
2022/01/22 17:30:11;;;;;;;1.60;1.60;;;2.80;99.90;;;;;;4975634;28;20250;-72
2022/01/22 17:32:38;;;;;;;1.40;1.40;;;2.80;99.90;;;;;;4977726;28;20245;-73
2022/01/22 17:35:07;;;;;;;1.23;1.23;;;2.80;99.90;;;;;;4977823;28;20691;-72
2022/01/22 17:37:34;;;;;;;1.60;1.60;;;2.80;99.90;;;;;;4976561;28;20338;-77
2022/01/22 17:40:01;;;;;;;1.33;1.33;;;2.80;99.90;;;;;;4976147;28;20273;-69
2022/01/22 17:42:31;;;;;;;1.67;1.67;;;2.80;99.90;;;;;;4976287;28;20211;-70
2022/01/22 17:45:06;;;;;;;1.40;1.40;;;2.80;99.90;;;;;;4976398;28;20195;-70
2022/01/22 17:47:34;;;;;;;1.90;1.85;;;2.80;99.90;;;;;;4976476;28;20188;-70
2022/01/22 17:50:01;;;;;;;1.08;1.08;;;2.80;99.90;;;;;;4975992;28;20258;-70
2022/01/22 17:52:29;;;;;;;1.40;1.40;;;2.80;99.90;;;;;;4976390;28;20246;-70
2022/01/22 17:54:56;;;;;;;2.15;2.05;;;2.80;99.90;;;;;;4976407;28;20239;-69
2022/01/22 17:57:23;;;;;;;2.53;2.42;;;2.80;99.90;;;;;;4976144;28;20685;-70
2022/01/22 17:59:50;;;;;;;2.28;2.10;;;2.70;99.90;;;;;;4976818;28;20259;-70
2022/01/22 18:02:19;;;;;;;2.83;2.63;;;2.70;99.90;;;;;;4976761;28;20687;-70
2022/01/22 18:04:48;;;;;;;2.05;1.95;;;2.70;99.90;;;;;;4976690;28;20223;-71
2022/01/22 18:07:16;;;;;;;1.85;1.75;;;2.70;99.90;;;;;;4976157;28;20257;-70
2022/01/22 18:09:44;;;;;;;1.83;1.83;;;2.70;99.90;;;;;;4976438;28;20274;-70
2022/01/22 18:12:12;;;;;;;1.90;1.80;;;2.70;99.90;;;;;;4975790;28;20231;-70
2022/01/22 18:14:39;;;;;;;1.77;1.77;;;2.70;99.90;;;;;;4975882;28;20199;-70
2022/01/22 18:17:07;;;;;;;1.75;1.70;;;2.70;99.90;;;;;;4975734;28;20270;-70
2022/01/22 18:19:34;;;;;;;1.90;1.80;;;2.70;99.90;;;;;;4975894;28;20223;-70
2022/01/22 18:22:01;;;;;;;1.58;1.58;;;2.70;99.90;;;;;;4975515;28;20262;-70
2022/01/22 18:24:28;;;;;;;1.77;1.67;;;2.70;99.90;;;;;;4975327;28;20215;-69
2022/01/22 18:26:56;;;;;;;1.50;1.50;;;2.60;99.90;;;;;;4975526;28;20199;-70
2022/01/22 18:29:24;;;;;;;1.58;1.50;;;2.70;99.90;;;;;;4977743;28;20203;-70
2022/01/22 18:31:53;;;;;;;1.38;1.38;;;2.70;99.90;;;;;;4977311;28;20227;-69
2022/01/22 18:34:21;;;;;;;1.58;1.58;;;2.60;99.90;;;;;;4975404;28;20238;-69
2022/01/22 18:36:50;;;;;;;2.05;2.00;;;2.60;99.90;;;;;;4978820;28;20219;-73
2022/01/22 18:39:19;;;;;;;2.10;1.83;;;2.60;99.90;;;;;;4977440;28;20235;-71
2022/01/22 18:41:51;;;;;;;1.83;1.77;;;2.60;99.90;;;;;;4977204;28;20203;-70
2022/01/22 18:44:20;;;;;;;2.05;2.05;;;2.60;99.90;;;;;;4978429;28;20208;-72
2022/01/22 18:46:48;;;;;;;2.35;2.20;;;2.50;99.90;;;;;;4977134;28;20207;-72
2022/01/22 18:49:17;;;;;;;5.68;4.28;;;2.50;99.90;;;;;;4977558;28;20203;-71
2022/01/22 18:51:45;;;;;;;4.47;3.70;;;2.50;99.90;;;;;;4978021;28;20211;-72
2022/01/22 18:54:13;;;;;;;3.95;3.45;;;2.40;99.90;;;;;;4978611;28;20258;-74
2022/01/22 18:56:42;;;;;;;3.63;3.40;;;2.40;99.90;;;;;;4977706;28;20215;-72
2022/01/22 18:59:12;;;;;;;4.68;3.80;;;2.40;99.90;;;;;;4977791;28;20214;-72
2022/01/22 19:01:44;;;;;;;4.63;4.22;;;2.40;99.90;;;;;;4978531;28;20362;-72
2022/01/22 19:04:13;;;;;;;3.50;3.20;;;2.40;99.90;;;;;;4975829;28;20238;-70
2022/01/22 19:06:41;;;;;;;4.43;4.00;;;2.40;99.90;;;;;;4975196;28;20266;-71
2022/01/22 19:09:09;;;;;;;3.92;3.63;;;2.40;99.90;;;;;;4974833;28;20258;-70
2022/01/22 19:11:36;;;;;;;3.33;3.00;;;2.40;99.90;;;;;;4975142;28;20251;-71
2022/01/22 19:14:03;;;;;;;3.80;3.50;;;2.50;99.90;;;;;;4975033;28;20230;-70
2022/01/22 19:16:30;;;;;;;3.35;3.15;;;2.40;99.90;;;;;;4974647;28;20243;-70
2022/01/22 19:18:58;;;;;;;3.50;3.20;;;2.40;99.90;;;;;;4974641;28;20591;-69
2022/01/22 19:21:30;;;;;;;3.20;3.00;;;2.50;99.90;;;;;;4974629;28;20711;-70
2022/01/22 19:24:04;;;;;;;2.95;2.75;;;2.50;99.90;;;;;;4974811;28;20298;-69
2022/01/22 19:28:00;;;;;;;3.45;3.22;;;2.50;99.90;;;;;;4974933;28;20199;-69
2022/01/22 19:29:28;;;;;;;3.50;3.20;;;2.40;99.90;;;;;;4974058;28;20214;-69
2022/01/22 19:31:55;;;;;;;3.08;2.92;;;2.40;99.90;;;;;;4974761;28;20238;-69
2022/01/22 19:34:24;;;;;;;3.15;2.95;;;2.40;99.90;;;;;;4974722;28;20237;-69
2022/01/22 19:36:56;;;;;;;2.42;2.33;;;2.40;99.90;;;;;;4974734;28;20235;-70
2022/01/22 19:39:25;;;;;;;2.70;2.50;;;2.40;99.90;;;;;;4975037;28;20203;-70
2022/01/22 19:41:55;;;;;;;2.80;2.60;;;2.40;99.90;;;;;;4974520;28;20239;-69
2022/01/22 19:44:29;;;;;;;4.22;3.30;;;2.40;99.90;;;;;;4974708;28;20254;-69
2022/01/22 19:46:57;;;;;;;3.22;3.03;;;2.40;99.90;;;;;;4974333;28;20226;-70
2022/01/22 19:49:26;;;;;;;3.40;3.20;;;2.40;99.90;;;;;;4974315;28;20208;-70
2022/01/22 19:51:53;;;;;;;2.80;2.60;;;2.40;99.90;;;;;;4975110;28;20614;-70
2022/01/22 19:54:21;;;;;;;2.85;2.65;;;2.40;99.90;;;;;;4978351;28;20207;-70
2022/01/22 19:56:49;;;;;;;2.47;2.38;;;2.30;99.90;;;;;;4978200;28;20204;-68
2022/01/22 19:59:16;;;;;;;2.88;2.70;;;2.30;99.90;;;;;;4977946;28;20648;-69
2022/01/22 20:01:44;;;;;;;2.45;2.35;;;2.30;99.90;;;;;;4978213;28;20298;-69
2022/01/22 20:04:12;;;;;;;2.70;2.50;;;2.30;99.90;;;;;;4977804;28;20251;-70
2022/01/22 20:06:42;;;;;;;2.60;2.40;;;2.30;99.90;;;;;;4978169;28;20199;-70
2022/01/22 20:09:12;;;;;;;3.10;2.90;;;2.30;99.90;;;;;;4978242;28;20187;-69
2022/01/22 20:11:39;;;;;;;2.90;2.78;;;2.30;99.90;;;;;;4977929;28;20203;-71
2022/01/22 20:14:06;;;;;;;2.97;2.80;;;2.20;99.90;;;;;;4977946;28;20594;-70